createdAt,value
2023-05-10T00:01:45.086Z,81.41
2023-05-10T00:04:11.818Z,81.59
2023-05-10T00:06:38.499Z,81.48
2023-05-10T00:09:05.448Z,81.22
2023-05-10T00:11:32.281Z,81.40
2023-05-10T00:13:59.130Z,81.51
2023-05-10T00:16:26.035Z,81.00
2023-05-10T00:18:52.861Z,81.15
2023-05-10T00:21:19.659Z,81.23
2023-05-10T00:23:46.351Z,80.92
2023-05-10T00:26:13.208Z,80.70
2023-05-10T00:28:43.860Z,80.70
2023-05-10T00:31:11.008Z,80.83
2023-05-10T00:33:37.670Z,80.69
2023-05-10T00:36:04.593Z,80.73
2023-05-10T00:38:31.234Z,80.55
2023-05-10T00:40:57.892Z,80.65
2023-05-10T00:43:29.750Z,80.40
2023-05-10T00:45:56.682Z,80.72
2023-05-10T00:48:23.548Z,80.70
2023-05-10T00:50:50.527Z,80.53
2023-05-10T00:53:17.896Z,80.25
2023-05-10T00:55:44.775Z,80.45
2023-05-10T00:58:11.631Z,80.40
2023-05-10T01:00:39.525Z,80.12
2023-05-10T01:03:06.661Z,79.90
2023-05-10T01:05:33.524Z,79.99
2023-05-10T01:08:00.365Z,80.11
2023-05-10T01:10:27.058Z,80.38
2023-05-10T01:12:54.018Z,80.21
2023-05-10T01:15:21.692Z,79.89
2023-05-10T01:17:49.533Z,79.92
2023-05-10T01:20:16.953Z,79.97
2023-05-10T01:23:16.126Z,79.75
2023-05-10T01:26:21.722Z,80.08
2023-05-10T01:29:20.441Z,80.10
2023-05-10T01:32:09.050Z,79.85
2023-05-10T01:34:37.656Z,80.18
2023-05-10T01:37:10.587Z,79.71
2023-05-10T01:39:55.805Z,80.75
2023-05-10T01:42:28.470Z,80.28
2023-05-10T01:45:06.823Z,80.10
2023-05-10T01:47:52.128Z,80.01
2023-05-10T01:50:26.340Z,79.34
2023-05-10T01:52:57.815Z,79.60
2023-05-10T01:55:28.214Z,79.80
2023-05-10T01:58:03.824Z,79.26
2023-05-10T02:00:34.577Z,79.33
2023-05-10T02:03:07.952Z,79.05
2023-05-10T02:05:35.369Z,78.86
2023-05-10T02:08:02.786Z,78.92
2023-05-10T02:10:30.110Z,78.94
2023-05-10T02:12:59.912Z,78.68
2023-05-10T02:15:27.718Z,78.76
2023-05-10T02:17:56.588Z,78.65
2023-05-10T02:20:24.485Z,78.46
2023-05-10T02:22:52.709Z,78.49
2023-05-10T02:25:20.943Z,78.24
2023-05-10T02:27:49.121Z,78.01
2023-05-10T02:30:16.241Z,78.53
2023-05-10T02:32:43.949Z,78.85
2023-05-10T02:35:11.035Z,78.67
2023-05-10T02:37:41.030Z,77.84
2023-05-10T02:40:08.457Z,78.27
2023-05-10T02:42:37.434Z,78.18
2023-05-10T02:45:09.286Z,77.83
2023-05-10T02:47:36.420Z,78.26
2023-05-10T02:50:03.451Z,78.27
2023-05-10T02:52:41.192Z,78.30
2023-05-10T02:55:08.715Z,78.26
2023-05-10T02:57:36.582Z,78.21
2023-05-10T03:00:04.351Z,78.03
2023-05-10T03:02:31.971Z,78.25
2023-05-10T03:04:59.513Z,78.06
2023-05-10T03:07:26.954Z,78.37
2023-05-10T03:09:53.886Z,78.33
2023-05-10T03:12:20.718Z,78.76
2023-05-10T03:14:57.857Z,78.46
2023-05-10T03:17:42.648Z,78.78
2023-05-10T03:20:15.869Z,78.15
2023-05-10T03:22:47.114Z,78.16
2023-05-10T03:25:16.723Z,78.03
2023-05-10T03:27:44.937Z,78.85
2023-05-10T03:30:13.104Z,79.12
2023-05-10T03:32:39.892Z,79.42
2023-05-10T03:35:11.224Z,78.98
2023-05-10T03:37:38.203Z,78.75
2023-05-10T03:40:07.989Z,78.90
2023-05-10T03:42:37.093Z,78.89
2023-05-10T03:45:04.133Z,78.84
2023-05-10T03:47:31.071Z,79.46
2023-05-10T03:49:58.954Z,79.48
2023-05-10T03:52:26.532Z,79.73
2023-05-10T03:54:53.502Z,79.91
2023-05-10T03:57:20.336Z,79.79
2023-05-10T03:59:47.117Z,80.18
2023-05-10T04:02:14.030Z,79.69
2023-05-10T04:04:41.032Z,80.14
2023-05-10T04:07:07.890Z,80.21
2023-05-10T04:09:34.980Z,80.32
2023-05-10T04:12:03.274Z,80.96
2023-05-10T04:14:30.174Z,80.25
2023-05-10T04:16:57.003Z,80.10
2023-05-10T04:19:24.238Z,80.23
2023-05-10T04:21:51.030Z,80.06
2023-05-10T04:24:17.754Z,80.23
2023-05-10T04:26:44.577Z,79.98
2023-05-10T04:29:11.231Z,79.80
2023-05-10T04:31:38.161Z,79.72
2023-05-10T04:34:04.937Z,79.91
2023-05-10T04:36:33.366Z,79.60
2023-05-10T04:39:00.085Z,79.45
2023-05-10T04:41:26.851Z,79.71
2023-05-10T04:43:53.567Z,79.69
2023-05-10T04:46:20.359Z,79.94
2023-05-10T04:48:47.049Z,79.74
2023-05-10T04:51:14.051Z,79.54
2023-05-10T04:53:41.873Z,79.80
2023-05-10T04:56:09.817Z,79.50
2023-05-10T04:58:36.549Z,79.13
2023-05-10T05:01:10.334Z,78.94
2023-05-10T05:03:37.777Z,78.97
2023-05-10T05:06:04.640Z,79.49
2023-05-10T05:08:31.472Z,78.86
2023-05-10T05:10:58.301Z,79.11
2023-05-10T05:13:24.975Z,79.05
2023-05-10T05:15:51.806Z,78.90
2023-05-10T05:18:18.622Z,79.45
2023-05-10T05:20:45.451Z,79.06
2023-05-10T05:23:12.150Z,79.35
2023-05-10T05:25:38.863Z,79.06
2023-05-10T05:28:05.564Z,79.22
2023-05-10T05:30:32.551Z,78.92
2023-05-10T05:32:59.330Z,79.03
2023-05-10T05:35:26.021Z,78.99
2023-05-10T05:37:52.736Z,78.98
2023-05-10T05:40:19.401Z,79.00
2023-05-10T05:42:46.073Z,78.84
2023-05-10T05:45:14.383Z,78.81
2023-05-10T05:47:41.464Z,78.48
2023-05-10T05:50:08.392Z,78.76
2023-05-10T05:52:35.217Z,78.83
2023-05-10T05:55:02.097Z,78.54
2023-05-10T05:57:29.002Z,78.51
2023-05-10T05:59:55.673Z,78.24
2023-05-10T06:02:22.516Z,78.42
2023-05-10T06:04:49.246Z,78.49
2023-05-10T06:07:15.903Z,78.61
2023-05-10T06:09:42.634Z,78.27
2023-05-10T06:12:09.428Z,78.26
2023-05-10T06:14:36.184Z,78.08
2023-05-10T06:17:05.073Z,78.27
2023-05-10T06:19:31.801Z,78.07
2023-05-10T06:21:58.528Z,78.13
2023-05-10T06:24:25.248Z,78.01
2023-05-10T06:26:51.953Z,77.97
2023-05-10T06:29:18.628Z,78.05
2023-05-10T06:31:45.403Z,78.08
2023-05-10T06:34:12.872Z,78.04
2023-05-10T06:36:39.666Z,77.95
2023-05-10T06:39:06.645Z,77.65
2023-05-10T06:41:33.291Z,77.66
2023-05-10T06:43:59.989Z,77.78
2023-05-10T06:46:26.786Z,77.77
2023-05-10T06:48:53.640Z,78.15
2023-05-10T06:51:22.098Z,78.09
2023-05-10T06:53:48.807Z,78.09
2023-05-10T06:56:15.710Z,78.40
2023-05-10T06:58:42.445Z,78.21
2023-05-10T07:01:09.397Z,77.92
2023-05-10T07:03:36.464Z,78.12
2023-05-10T07:06:11.353Z,77.61
2023-05-10T07:08:42.642Z,77.84
2023-05-10T07:11:09.405Z,77.55
2023-05-10T07:13:37.175Z,77.49
2023-05-10T07:16:04.050Z,77.29
2023-05-10T07:18:30.946Z,76.92
2023-05-10T07:20:57.961Z,77.13
2023-05-10T07:23:24.726Z,77.14
2023-05-10T07:25:55.593Z,77.07
2023-05-10T07:28:22.887Z,77.07
2023-05-10T07:30:49.731Z,77.44
2023-05-10T07:33:16.972Z,77.21
2023-05-10T07:35:44.200Z,76.97
2023-05-10T07:38:12.101Z,77.02
2023-05-10T07:40:40.821Z,76.86
2023-05-10T07:43:07.545Z,77.00
2023-05-10T07:45:34.570Z,77.00
2023-05-10T07:48:01.420Z,77.45
2023-05-10T07:50:28.346Z,77.77
2023-05-10T07:52:55.099Z,77.95
2023-05-10T07:55:22.339Z,77.55
2023-05-10T07:57:49.057Z,77.73
2023-05-10T08:00:19.382Z,77.76
2023-05-10T08:02:46.227Z,77.57
2023-05-10T08:05:13.135Z,76.98
2023-05-10T08:07:40.004Z,77.68
2023-05-10T08:10:07.496Z,78.03
2023-05-10T08:12:34.146Z,78.20
2023-05-10T08:15:01.009Z,77.94
2023-05-10T08:17:27.766Z,77.82
2023-05-10T08:19:54.477Z,77.16
2023-05-10T08:22:21.137Z,77.03
2023-05-10T08:24:47.816Z,76.95
2023-05-10T08:27:14.452Z,76.15
2023-05-10T08:29:49.430Z,76.31
2023-05-10T08:32:16.996Z,75.77
2023-05-10T08:34:43.869Z,76.09
2023-05-10T08:37:14.004Z,76.04
2023-05-10T08:39:41.084Z,75.61
2023-05-10T08:42:09.286Z,75.22
2023-05-10T08:44:37.476Z,75.15
2023-05-10T08:47:06.743Z,74.99
2023-05-10T08:49:34.403Z,75.28
2023-05-10T08:52:05.155Z,74.83
2023-05-10T08:54:35.251Z,74.65
2023-05-10T08:57:02.207Z,74.42
2023-05-10T08:59:29.573Z,74.36
2023-05-10T09:01:58.701Z,74.36
2023-05-10T09:04:25.517Z,73.80
2023-05-10T09:06:52.599Z,73.75
2023-05-10T09:09:20.499Z,73.61
2023-05-10T09:11:47.156Z,73.57
2023-05-10T09:14:13.985Z,73.78
2023-05-10T09:16:41.150Z,73.71
2023-05-10T09:19:09.412Z,73.30
2023-05-10T09:21:39.057Z,73.46
2023-05-10T09:24:07.646Z,73.94
2023-05-10T09:26:36.285Z,74.02
2023-05-10T09:29:03.946Z,73.52
2023-05-10T09:31:55.185Z,72.13
2023-05-10T09:34:30.107Z,72.38
2023-05-10T09:37:02.287Z,72.70
2023-05-10T09:39:35.821Z,72.96
2023-05-10T09:42:07.279Z,72.40
2023-05-10T09:44:34.767Z,72.70
2023-05-10T09:47:02.752Z,72.70
2023-05-10T09:49:29.855Z,72.43
2023-05-10T09:52:07.497Z,70.98
2023-05-10T09:54:35.253Z,71.78
2023-05-10T09:57:02.440Z,71.93
2023-05-10T09:59:29.826Z,71.78
2023-05-10T10:01:58.116Z,71.61
2023-05-10T10:04:24.945Z,71.85
2023-05-10T10:07:02.483Z,71.66
2023-05-10T10:09:29.546Z,72.07
2023-05-10T10:11:57.527Z,71.47
2023-05-10T10:14:27.310Z,71.11
2023-05-10T10:17:06.627Z,71.41
2023-05-10T10:19:36.757Z,71.40
2023-05-10T10:22:03.905Z,71.29
2023-05-10T10:24:30.707Z,71.02
2023-05-10T10:27:05.344Z,71.13
2023-05-10T10:29:51.096Z,70.64
2023-05-10T10:32:26.611Z,71.02
2023-05-10T10:34:55.305Z,70.78
2023-05-10T10:37:22.116Z,69.44
2023-05-10T10:39:51.718Z,69.09
2023-05-10T10:42:48.262Z,68.15
2023-05-10T10:45:15.162Z,69.05
2023-05-10T10:47:44.198Z,69.15
2023-05-10T10:50:14.064Z,68.51
2023-05-10T10:52:41.811Z,68.95
2023-05-10T10:55:19.995Z,68.88
2023-05-10T10:57:52.623Z,68.83
2023-05-10T11:00:33.187Z,67.62
2023-05-10T11:03:15.374Z,67.41
2023-05-10T11:05:46.868Z,65.34
2023-05-10T11:08:36.887Z,65.76
2023-05-10T11:11:09.777Z,66.45
2023-05-10T11:13:40.376Z,66.28
2023-05-10T11:16:27.705Z,66.03
2023-05-10T11:19:09.235Z,64.63
2023-05-10T11:21:49.174Z,64.98
2023-05-10T11:24:20.888Z,65.54
2023-05-10T11:26:51.064Z,66.11
2023-05-10T11:29:17.855Z,66.54
2023-05-10T11:31:46.236Z,66.70
2023-05-10T11:34:15.641Z,66.67
2023-05-10T11:36:42.459Z,66.46
2023-05-10T11:39:09.202Z,65.98
2023-05-10T11:41:36.434Z,66.47
2023-05-10T11:44:03.174Z,66.46
2023-05-10T11:46:29.942Z,66.35
2023-05-10T11:49:05.523Z,66.04
2023-05-10T11:51:35.089Z,66.04
2023-05-10T11:54:02.011Z,66.40
2023-05-10T11:56:28.669Z,66.32
2023-05-10T11:58:57.609Z,66.27
2023-05-10T12:01:25.759Z,66.30
2023-05-10T12:03:53.832Z,66.18
2023-05-10T12:06:21.666Z,65.89
2023-05-10T12:08:49.196Z,65.79
2023-05-10T12:11:16.563Z,65.57
2023-05-10T12:13:47.467Z,65.70
2023-05-10T12:16:22.008Z,65.29
2023-05-10T12:18:52.841Z,64.98
2023-05-10T12:21:21.018Z,65.67
2023-05-10T12:23:49.700Z,65.87
2023-05-10T12:26:16.460Z,65.87
2023-05-10T12:28:43.259Z,66.02
2023-05-10T12:31:09.945Z,65.55
2023-05-10T12:33:43.376Z,65.20
2023-05-10T12:36:11.050Z,65.21
2023-05-10T12:38:40.040Z,64.84
2023-05-10T12:41:17.693Z,64.02
2023-05-10T12:43:46.284Z,64.38
2023-05-10T12:46:15.269Z,64.19
2023-05-10T12:48:43.447Z,64.03
2023-05-10T12:51:10.606Z,64.26
2023-05-10T12:53:37.697Z,63.68
2023-05-10T12:56:04.658Z,63.40
2023-05-10T12:58:36.094Z,63.08
2023-05-10T13:01:03.809Z,63.15
2023-05-10T13:03:30.619Z,62.68
2023-05-10T13:05:57.369Z,61.58
2023-05-10T13:08:24.106Z,60.77
2023-05-10T13:10:51.129Z,60.61
2023-05-10T13:13:18.712Z,59.77
2023-05-10T13:15:45.376Z,59.68
2023-05-10T13:18:12.142Z,59.03
2023-05-10T13:20:38.962Z,59.02
2023-05-10T13:23:05.730Z,59.56
2023-05-10T13:25:32.636Z,60.27
2023-05-10T13:27:59.275Z,60.67
2023-05-10T13:30:26.101Z,60.14
2023-05-10T13:32:52.837Z,59.37
2023-05-10T13:35:19.672Z,59.69
2023-05-10T13:37:46.455Z,59.92
2023-05-10T13:40:13.243Z,59.32
2023-05-10T13:42:40.567Z,60.00
2023-05-10T13:45:07.651Z,60.02
2023-05-10T13:47:34.393Z,59.98
2023-05-10T13:50:02.033Z,59.87
2023-05-10T13:52:29.485Z,59.26
2023-05-10T13:54:56.291Z,59.34
2023-05-10T13:57:23.957Z,59.43
2023-05-10T13:59:50.963Z,59.32
2023-05-10T14:02:17.653Z,59.45
2023-05-10T14:04:44.381Z,58.90
2023-05-10T14:07:11.074Z,59.28
2023-05-10T14:09:37.796Z,59.75
2023-05-10T14:12:04.636Z,59.49
2023-05-10T14:14:31.480Z,59.15
2023-05-10T14:16:58.199Z,58.84
2023-05-10T14:19:24.887Z,58.57
2023-05-10T14:21:52.948Z,58.64
2023-05-10T14:24:19.613Z,58.29
2023-05-10T14:26:46.403Z,58.28
2023-05-10T14:29:13.053Z,56.89
2023-05-10T14:31:39.768Z,56.66
2023-05-10T14:34:06.642Z,56.48
2023-05-10T14:36:33.637Z,57.27
2023-05-10T14:39:00.377Z,57.41
2023-05-10T14:41:27.037Z,57.25
2023-05-10T14:43:53.946Z,55.98
2023-05-10T14:46:20.804Z,56.14
2023-05-10T14:48:47.600Z,55.67
2023-05-10T14:51:14.489Z,55.90
2023-05-10T14:53:41.185Z,55.50
2023-05-10T14:56:07.976Z,55.77
2023-05-10T14:58:34.877Z,55.93
2023-05-10T15:01:01.913Z,54.67
2023-05-10T15:03:29.496Z,55.08
2023-05-10T15:05:58.615Z,55.09
2023-05-10T15:08:28.776Z,55.59
2023-05-10T15:10:56.900Z,55.07
2023-05-10T15:13:23.625Z,55.29
2023-05-10T15:15:50.361Z,54.62
2023-05-10T15:18:18.013Z,54.71
2023-05-10T15:20:44.826Z,54.22
2023-05-10T15:23:11.552Z,54.88
2023-05-10T15:25:38.422Z,55.03
2023-05-10T15:28:05.521Z,54.46
2023-05-10T15:30:32.229Z,54.67
2023-05-10T15:32:59.083Z,54.82
2023-05-10T15:35:27.278Z,54.69
2023-05-10T15:37:54.000Z,54.99
2023-05-10T15:40:20.746Z,55.10
2023-05-10T15:42:47.465Z,54.61
2023-05-10T15:48:36.968Z,54.21
2023-05-10T15:51:03.945Z,54.77
2023-05-10T15:53:30.699Z,54.23
2023-05-10T15:56:00.581Z,54.32
2023-05-10T15:58:38.699Z,54.20
2023-05-10T16:01:08.550Z,54.22
2023-05-10T16:03:37.374Z,54.29
2023-05-10T16:06:04.673Z,54.59
2023-05-10T16:08:33.589Z,54.37
2023-05-10T16:11:00.639Z,54.16
2023-05-10T16:13:27.611Z,53.95
2023-05-10T16:15:54.419Z,54.00
2023-05-10T16:18:21.443Z,53.52
2023-05-10T16:20:48.483Z,53.96
2023-05-10T16:23:15.276Z,54.54
2023-05-10T16:25:42.208Z,54.01
2023-05-10T16:28:08.903Z,54.10
2023-05-10T16:30:35.996Z,54.03
2023-05-10T16:33:02.844Z,54.09
2023-05-10T16:35:30.003Z,54.30
2023-05-10T16:37:57.097Z,54.20
2023-05-10T16:40:24.204Z,54.50
2023-05-10T16:42:50.874Z,53.85
2023-05-10T16:45:18.037Z,54.10
2023-05-10T16:47:45.226Z,54.01
2023-05-10T16:50:12.408Z,54.06
2023-05-10T16:52:39.399Z,54.52
2023-05-10T16:55:06.521Z,54.55
2023-05-10T16:57:33.309Z,54.43
2023-05-10T17:00:00.136Z,54.66
2023-05-10T17:02:27.171Z,55.07
2023-05-10T17:04:56.014Z,55.26
2023-05-10T17:07:25.395Z,55.02
2023-05-10T17:09:52.944Z,55.50
2023-05-10T17:12:22.123Z,55.35
2023-05-10T17:14:48.992Z,56.65
2023-05-10T17:17:15.754Z,57.69
2023-05-10T17:19:45.420Z,58.19
2023-05-10T17:22:14.962Z,59.42
2023-05-10T17:24:41.767Z,59.81
2023-05-10T17:27:08.644Z,59.96
2023-05-10T17:29:35.311Z,60.51
2023-05-10T17:32:02.341Z,60.50
2023-05-10T17:34:29.192Z,61.12
2023-05-10T17:36:55.878Z,61.13
2023-05-10T17:39:22.582Z,61.03
2023-05-10T17:41:49.313Z,61.33
2023-05-10T17:44:15.994Z,61.42
2023-05-10T17:46:43.370Z,61.80
2023-05-10T17:49:10.323Z,62.24
2023-05-10T17:51:37.100Z,62.59
2023-05-10T17:54:38.319Z,65.66
2023-05-10T17:57:09.875Z,63.50
2023-05-10T17:59:49.410Z,63.35
2023-05-10T18:02:16.721Z,63.26
2023-05-10T18:04:50.965Z,63.08
2023-05-10T18:07:23.949Z,63.20
2023-05-10T18:10:24.232Z,63.18
2023-05-10T18:13:02.605Z,63.31
2023-05-10T18:15:31.503Z,63.45
2023-05-10T18:18:04.328Z,64.28
2023-05-10T18:20:37.130Z,64.32
2023-05-10T18:23:06.397Z,64.73
2023-05-10T18:25:33.169Z,65.40
2023-05-10T18:28:00.049Z,65.05
2023-05-10T18:30:27.040Z,64.90
2023-05-10T18:32:53.967Z,64.17
2023-05-10T18:35:21.489Z,64.11
2023-05-10T18:37:49.036Z,64.10
2023-05-10T18:40:17.544Z,64.39
2023-05-10T18:42:46.479Z,64.34
2023-05-10T18:45:13.597Z,64.50
2023-05-10T18:47:40.616Z,64.79
2023-05-10T18:50:08.015Z,64.82
2023-05-10T18:52:35.942Z,64.60
2023-05-10T18:55:03.507Z,64.73
2023-05-10T18:57:30.322Z,65.19
2023-05-10T18:59:57.022Z,65.23
2023-05-10T19:02:25.360Z,65.16
2023-05-10T19:04:52.266Z,64.14
2023-05-10T19:07:19.240Z,63.17
2023-05-10T19:09:46.114Z,62.74
2023-05-10T19:12:12.941Z,62.18
2023-05-10T19:14:39.812Z,62.66
2023-05-10T19:17:06.872Z,63.22
2023-05-10T19:19:33.768Z,63.38
2023-05-10T19:22:00.729Z,63.05
2023-05-10T19:24:27.842Z,62.31
2023-05-10T19:26:56.305Z,62.04
2023-05-10T19:29:23.232Z,61.35
2023-05-10T19:31:50.138Z,62.22
2023-05-10T19:34:17.149Z,62.04
2023-05-10T19:36:44.045Z,62.77
2023-05-10T19:39:11.523Z,62.44
2023-05-10T19:41:38.492Z,61.87
2023-05-10T19:44:05.376Z,61.63
2023-05-10T19:46:32.410Z,61.26
2023-05-10T19:48:59.206Z,60.72
2023-05-10T19:51:26.033Z,61.26
2023-05-10T19:53:52.881Z,62.11
2023-05-10T19:56:19.750Z,62.88
2023-05-10T19:58:46.689Z,62.94
2023-05-10T20:01:13.859Z,63.45
2023-05-10T20:03:40.848Z,63.55
2023-05-10T20:06:07.763Z,63.81
2023-05-10T20:08:34.552Z,63.65
2023-05-10T20:11:03.818Z,64.05
2023-05-10T20:13:30.811Z,64.31
2023-05-10T20:15:58.609Z,64.35
2023-05-10T20:18:28.315Z,64.12
2023-05-10T20:20:57.621Z,64.20
2023-05-10T20:23:24.409Z,64.51
2023-05-10T20:25:51.310Z,64.36
2023-05-10T20:28:22.975Z,64.89
2023-05-10T20:30:54.160Z,65.24
2023-05-10T20:33:21.872Z,64.90
2023-05-10T20:35:50.318Z,65.34
2023-05-10T20:38:18.223Z,65.26
2023-05-10T20:40:45.617Z,64.71
2023-05-10T20:43:12.729Z,65.35
2023-05-10T20:45:39.568Z,65.27
2023-05-10T20:48:06.560Z,64.79
2023-05-10T20:50:33.457Z,65.00
2023-05-10T20:53:01.073Z,65.49
2023-05-10T20:55:28.522Z,65.74
2023-05-10T20:57:55.491Z,65.92
2023-05-10T21:00:22.455Z,66.25
2023-05-10T21:02:49.408Z,66.07
2023-05-10T21:05:17.612Z,66.12
2023-05-10T21:07:44.430Z,65.89
2023-05-10T21:10:11.639Z,66.25
2023-05-10T21:12:38.462Z,66.40
2023-05-10T21:15:05.789Z,66.32
2023-05-10T21:17:32.864Z,66.20
2023-05-10T21:19:59.748Z,66.15
2023-05-10T21:22:26.905Z,66.30
2023-05-10T21:24:53.717Z,66.28
2023-05-10T21:27:20.637Z,66.49
2023-05-10T21:29:47.365Z,66.82
2023-05-10T21:32:15.055Z,66.76
2023-05-10T21:34:42.103Z,66.95
2023-05-10T21:37:09.126Z,66.88
2023-05-10T21:39:36.260Z,66.93
2023-05-10T21:42:03.763Z,66.65
2023-05-10T21:44:31.654Z,66.47
2023-05-10T21:46:58.677Z,66.19
2023-05-10T21:49:25.816Z,66.32
2023-05-10T21:51:52.604Z,66.41
2023-05-10T21:54:19.395Z,66.67
2023-05-10T21:56:46.429Z,66.67
2023-05-10T21:59:13.432Z,67.08
2023-05-10T22:01:40.385Z,66.57
2023-05-10T22:04:07.263Z,66.46
2023-05-10T22:06:34.206Z,66.24
2023-05-10T22:09:01.059Z,66.65
2023-05-10T22:11:27.998Z,66.87
2023-05-10T22:13:54.888Z,67.07
2023-05-10T22:16:21.852Z,67.18
2023-05-10T22:18:48.804Z,67.17
2023-05-10T22:21:15.620Z,67.58
2023-05-10T22:23:42.503Z,67.27
2023-05-10T22:26:09.640Z,67.81
2023-05-10T22:28:36.585Z,67.64
2023-05-10T22:31:03.672Z,67.66
2023-05-10T22:33:30.481Z,67.65
2023-05-10T22:35:57.267Z,67.98
2023-05-10T22:38:24.131Z,68.17
2023-05-10T22:40:50.917Z,68.10
2023-05-10T22:43:18.243Z,67.97
2023-05-10T22:45:45.181Z,68.02
2023-05-10T22:48:12.058Z,68.11
2023-05-10T22:50:39.021Z,68.38
2023-05-10T22:53:06.678Z,68.53
2023-05-10T22:55:33.581Z,68.53
2023-05-10T22:58:01.135Z,68.45
2023-05-10T23:00:27.994Z,68.12
2023-05-10T23:02:54.936Z,68.23
2023-05-10T23:05:21.863Z,68.28
2023-05-10T23:07:53.102Z,68.09
2023-05-10T23:10:20.465Z,68.37
2023-05-10T23:12:48.092Z,67.67
2023-05-10T23:15:14.989Z,68.03
2023-05-10T23:17:41.881Z,67.71
2023-05-10T23:20:09.215Z,67.92
2023-05-10T23:22:36.241Z,68.27
2023-05-10T23:25:03.064Z,68.54
2023-05-10T23:27:30.634Z,68.77
2023-05-10T23:29:58.591Z,68.96
2023-05-10T23:32:25.426Z,69.33
2023-05-10T23:34:52.250Z,69.40
2023-05-10T23:37:19.077Z,69.23
2023-05-10T23:39:45.854Z,69.80
2023-05-10T23:42:12.715Z,69.77
2023-05-10T23:44:39.585Z,69.74
2023-05-10T23:47:07.227Z,69.86
2023-05-10T23:49:34.236Z,69.55
2023-05-10T23:52:01.296Z,69.66
2023-05-10T23:54:28.694Z,69.87
2023-05-10T23:56:55.453Z,69.96
2023-05-10T23:59:22.329Z,69.91
